createdAt,value
2019-02-26T00:01:50.428Z,10.57
2019-02-26T00:04:14.877Z,9.68
2019-02-26T00:06:47.160Z,9.35
2019-02-26T00:09:11.781Z,8.73
2019-02-26T00:11:40.257Z,10.20
2019-02-26T00:14:07.695Z,9.73
2019-02-26T00:16:37.741Z,10.07
2019-02-26T00:19:05.015Z,9.00
2019-02-26T00:21:32.120Z,9.75
2019-02-26T00:23:59.862Z,10.40
2019-02-26T00:26:27.820Z,9.20
2019-02-26T00:28:57.266Z,9.70
2019-02-26T00:31:24.314Z,9.23
2019-02-26T00:33:51.726Z,9.52
2019-02-26T00:36:19.437Z,8.82
2019-02-26T00:38:48.063Z,8.25
2019-02-26T00:41:16.025Z,8.35
2019-02-26T00:43:44.361Z,7.72
2019-02-26T00:46:12.360Z,8.95
2019-02-26T00:48:40.707Z,9.75
2019-02-26T00:51:08.860Z,11.90
2019-02-26T00:53:36.920Z,11.05
2019-02-26T00:56:05.648Z,10.25
2019-02-26T00:58:37.080Z,11.12
2019-02-26T01:01:02.266Z,10.05
2019-02-26T01:03:30.267Z,10.68
2019-02-26T01:05:59.308Z,10.05
2019-02-26T01:08:26.607Z,10.07
2019-02-26T01:10:54.588Z,9.75
2019-02-26T01:13:25.015Z,10.35
2019-02-26T01:15:50.634Z,10.52
2019-02-26T01:18:20.714Z,10.73
2019-02-26T01:20:50.295Z,10.88
2019-02-26T01:23:16.475Z,10.73
2019-02-26T01:25:43.695Z,11.23
2019-02-26T01:28:14.116Z,11.25
2019-02-26T01:30:39.455Z,11.27
2019-02-26T01:33:09.704Z,10.52
2019-02-26T01:35:37.796Z,10.82
2019-02-26T01:38:04.292Z,10.90
2019-02-26T01:40:32.294Z,10.70
2019-02-26T01:43:02.578Z,8.68
2019-02-26T01:45:30.446Z,9.77
2019-02-26T01:47:56.754Z,8.70
2019-02-26T01:50:24.820Z,10.23
2019-02-26T01:52:54.561Z,11.57
2019-02-26T01:55:22.828Z,10.80
2019-02-26T01:57:48.936Z,10.70
2019-02-26T02:00:17.296Z,9.45
2019-02-26T02:02:45.867Z,10.48
2019-02-26T02:05:13.875Z,11.12
2019-02-26T02:07:41.885Z,10.55
2019-02-26T02:10:10.238Z,11.25
2019-02-26T02:12:39.719Z,10.98
2019-02-26T02:15:08.030Z,10.63
2019-02-26T02:17:38.372Z,10.90
2019-02-26T02:20:07.700Z,11.32
2019-02-26T02:22:35.261Z,11.48
2019-02-26T02:25:02.866Z,10.77
2019-02-26T02:27:33.728Z,11.10
2019-02-26T02:30:01.790Z,10.68
2019-02-26T02:32:33.890Z,11.57
2019-02-26T02:35:03.433Z,11.43
2019-02-26T02:37:27.460Z,11.50
2019-02-26T02:39:54.604Z,10.98
2019-02-26T02:42:22.720Z,11.85
2019-02-26T02:44:52.544Z,10.05
2019-02-26T02:47:18.407Z,12.23
2019-02-26T02:49:46.997Z,10.88
2019-02-26T02:52:15.503Z,11.80
2019-02-26T02:54:44.136Z,11.12
2019-02-26T02:57:11.753Z,11.88
2019-02-26T02:59:42.315Z,11.18
2019-02-26T03:02:09.346Z,11.40
2019-02-26T03:04:36.056Z,11.30
2019-02-26T03:07:04.394Z,12.00
2019-02-26T03:09:37.179Z,11.35
2019-02-26T03:12:01.851Z,11.43
2019-02-26T03:14:32.914Z,11.60
2019-02-26T03:16:57.753Z,12.90
2019-02-26T03:19:26.008Z,11.40
2019-02-26T03:21:55.044Z,11.00
2019-02-26T03:24:25.061Z,11.70
2019-02-26T03:26:50.387Z,11.73
2019-02-26T03:29:18.090Z,12.20
2019-02-26T03:31:48.004Z,11.73
2019-02-26T03:34:19.790Z,11.25
2019-02-26T03:36:45.076Z,11.25
2019-02-26T03:39:10.156Z,10.75
2019-02-26T03:41:38.460Z,10.85
2019-02-26T03:44:08.757Z,12.13
2019-02-26T03:46:34.811Z,11.40
2019-02-26T03:49:03.666Z,11.73
2019-02-26T03:51:31.057Z,11.45
2019-02-26T03:53:58.512Z,11.55
2019-02-26T03:56:26.912Z,11.05
2019-02-26T03:58:57.263Z,12.52
2019-02-26T04:01:23.116Z,11.20
2019-02-26T04:03:50.988Z,11.88
2019-02-26T04:06:19.056Z,11.88
2019-02-26T04:08:48.580Z,12.55
2019-02-26T04:11:16.816Z,11.55
2019-02-26T04:13:43.903Z,11.50
2019-02-26T04:16:11.366Z,11.23
2019-02-26T04:18:39.723Z,11.63
2019-02-26T04:21:09.371Z,11.45
2019-02-26T04:23:36.679Z,10.93
2019-02-26T04:26:35.708Z,11.45
2019-02-26T04:29:13.093Z,10.87
2019-02-26T04:32:06.472Z,11.13
2019-02-26T04:34:37.377Z,10.25
2019-02-26T04:37:30.169Z,9.30
2019-02-26T04:40:14.187Z,11.93
2019-02-26T04:42:52.437Z,12.65
2019-02-26T04:45:59.403Z,11.43
2019-02-26T04:48:29.072Z,12.20
2019-02-26T04:50:54.145Z,12.00
2019-02-26T04:53:23.410Z,12.82
2019-02-26T04:55:50.279Z,13.05
2019-02-26T04:58:20.152Z,12.73
2019-02-26T05:00:46.532Z,12.32
2019-02-26T05:03:17.169Z,12.40
2019-02-26T05:05:43.405Z,9.85
2019-02-26T05:08:12.860Z,11.52
2019-02-26T05:10:42.667Z,12.20
2019-02-26T05:13:13.400Z,13.35
2019-02-26T05:15:43.555Z,11.65
2019-02-26T05:18:11.989Z,16.00
2019-02-26T05:20:43.114Z,12.70
2019-02-26T05:23:07.700Z,14.00
2019-02-26T05:25:39.233Z,13.48
2019-02-26T05:28:06.282Z,13.45
2019-02-26T05:30:32.145Z,12.95
2019-02-26T05:33:00.845Z,13.75
2019-02-26T05:35:27.828Z,14.00
2019-02-26T05:37:58.138Z,13.25
2019-02-26T05:40:23.244Z,13.95
2019-02-26T05:42:53.265Z,13.55
2019-02-26T05:45:21.511Z,15.27
2019-02-26T05:47:48.862Z,14.55
2019-02-26T05:50:16.709Z,12.98
2019-02-26T05:52:43.047Z,13.35
2019-02-26T05:55:13.963Z,13.45
2019-02-26T05:57:39.555Z,14.07
2019-02-26T06:00:08.559Z,13.40
2019-02-26T06:02:38.838Z,14.75
2019-02-26T06:05:03.828Z,13.10
2019-02-26T06:07:33.948Z,14.27
2019-02-26T06:10:00.124Z,13.20
2019-02-26T06:12:30.552Z,14.15
2019-02-26T06:14:58.456Z,15.00
2019-02-26T06:17:23.885Z,14.32
2019-02-26T06:19:51.373Z,14.20
2019-02-26T06:22:21.338Z,15.32
2019-02-26T06:24:47.316Z,14.20
2019-02-26T06:27:16.633Z,14.57
2019-02-26T06:29:43.830Z,12.73
2019-02-26T06:32:13.135Z,11.53
2019-02-26T06:34:41.095Z,11.80
2019-02-26T06:37:16.710Z,12.60
2019-02-26T06:39:44.811Z,14.07
2019-02-26T06:42:14.453Z,14.48
2019-02-26T06:44:41.373Z,11.40
2019-02-26T06:47:09.181Z,11.65
2019-02-26T06:49:37.039Z,13.73
2019-02-26T06:52:06.063Z,12.50
2019-02-26T06:54:33.496Z,12.73
2019-02-26T06:57:01.477Z,13.43
2019-02-26T06:59:31.810Z,14.40
2019-02-26T07:01:57.506Z,14.05
2019-02-26T07:04:27.032Z,14.15
2019-02-26T07:06:55.271Z,13.48
2019-02-26T07:09:22.033Z,12.48
2019-02-26T07:11:49.719Z,13.48
2019-02-26T07:14:17.734Z,12.52
2019-02-26T07:16:46.138Z,14.60
2019-02-26T07:19:15.068Z,13.40
2019-02-26T07:21:42.959Z,13.35
2019-02-26T07:24:10.347Z,11.70
2019-02-26T07:26:38.636Z,13.68
2019-02-26T07:29:07.618Z,13.30
2019-02-26T07:31:35.548Z,13.90
2019-02-26T07:34:03.201Z,11.68
2019-02-26T07:36:30.308Z,12.60
2019-02-26T07:38:58.775Z,12.68
2019-02-26T07:41:29.845Z,14.73
2019-02-26T07:43:54.939Z,13.80
2019-02-26T07:46:22.913Z,14.50
2019-02-26T07:48:53.627Z,15.45
2019-02-26T07:51:18.644Z,15.73
2019-02-26T07:53:50.556Z,16.70
2019-02-26T07:56:14.625Z,15.75
2019-02-26T07:58:43.109Z,15.65
2019-02-26T08:01:11.282Z,15.93
2019-02-26T08:03:39.274Z,15.82
2019-02-26T08:06:09.212Z,14.95
2019-02-26T08:08:37.364Z,16.23
2019-02-26T08:11:03.595Z,14.98
2019-02-26T08:13:32.091Z,16.58
2019-02-26T08:16:02.328Z,16.50
2019-02-26T08:18:28.218Z,16.75
2019-02-26T08:20:57.935Z,16.15
2019-02-26T08:23:26.258Z,16.20
2019-02-26T08:25:52.896Z,16.62
2019-02-26T08:28:20.873Z,17.25
2019-02-26T08:30:49.903Z,17.00
2019-02-26T08:33:17.156Z,16.65
2019-02-26T08:35:45.092Z,20.35
2019-02-26T08:38:12.898Z,18.23
2019-02-26T08:40:40.855Z,18.83
2019-02-26T08:43:08.828Z,17.35
2019-02-26T08:45:37.097Z,16.48
2019-02-26T08:48:05.069Z,18.40
2019-02-26T08:50:35.743Z,18.70
2019-02-26T08:53:01.011Z,17.77
2019-02-26T08:55:29.026Z,18.15
2019-02-26T08:57:56.984Z,18.27
2019-02-26T09:00:25.320Z,19.40
2019-02-26T09:02:54.454Z,18.73
2019-02-26T09:05:23.293Z,18.65
2019-02-26T09:07:50.581Z,18.45
2019-02-26T09:10:17.885Z,17.85
2019-02-26T09:12:46.854Z,17.60
2019-02-26T09:15:15.766Z,18.50
2019-02-26T09:17:42.165Z,18.62
2019-02-26T09:20:12.334Z,18.15
2019-02-26T09:22:40.613Z,18.02
2019-02-26T09:25:07.955Z,18.00
2019-02-26T09:27:42.586Z,17.83
2019-02-26T09:30:05.831Z,18.10
2019-02-26T09:32:33.128Z,18.45
2019-02-26T09:35:02.304Z,18.67
2019-02-26T09:37:29.271Z,18.33
2019-02-26T09:39:59.117Z,17.98
2019-02-26T09:42:26.004Z,17.65
2019-02-26T09:44:55.455Z,16.55
2019-02-26T09:47:31.041Z,17.95
2019-02-26T09:49:58.396Z,17.40
2019-02-26T09:52:27.599Z,17.95
2019-02-26T09:54:55.215Z,17.08
2019-02-26T09:57:23.429Z,17.40
2019-02-26T09:59:49.608Z,17.02
2019-02-26T10:02:17.721Z,16.52
2019-02-26T10:04:47.206Z,17.62
2019-02-26T10:07:14.395Z,17.58
2019-02-26T10:09:45.750Z,17.95
2019-02-26T10:12:10.661Z,17.83
2019-02-26T10:14:38.528Z,17.98
2019-02-26T10:17:04.529Z,17.15
2019-02-26T10:19:33.740Z,16.55
2019-02-26T10:22:03.581Z,18.23
2019-02-26T10:24:30.195Z,17.67
2019-02-26T10:27:00.801Z,16.90
2019-02-26T10:29:25.539Z,16.92
2019-02-26T10:31:56.123Z,18.02
2019-02-26T10:34:25.616Z,17.23
2019-02-26T10:36:51.811Z,16.87
2019-02-26T10:39:20.508Z,16.12
2019-02-26T10:41:46.763Z,16.35
2019-02-26T10:44:14.792Z,17.27
2019-02-26T10:46:44.431Z,17.67
2019-02-26T10:49:12.439Z,16.27
2019-02-26T10:51:42.418Z,17.37
2019-02-26T10:54:11.721Z,17.12
2019-02-26T10:56:39.217Z,16.65
2019-02-26T10:59:08.608Z,17.85
2019-02-26T11:01:33.696Z,17.50
2019-02-26T11:04:00.268Z,20.17
2019-02-26T11:06:30.417Z,16.92
2019-02-26T11:08:58.702Z,17.42
2019-02-26T11:11:25.180Z,17.58
2019-02-26T11:13:53.897Z,17.00
2019-02-26T11:16:25.111Z,16.45
2019-02-26T11:18:50.627Z,17.02
2019-02-26T11:21:18.610Z,16.52
2019-02-26T11:23:46.585Z,14.80
2019-02-26T11:26:15.327Z,13.93
2019-02-26T11:28:45.016Z,16.85
2019-02-26T11:31:12.199Z,15.80
2019-02-26T11:33:38.688Z,15.38
2019-02-26T11:36:08.101Z,14.82
2019-02-26T11:38:36.941Z,14.95
2019-02-26T11:41:02.787Z,14.57
2019-02-26T11:43:30.457Z,13.85
2019-02-26T11:45:59.681Z,15.27
2019-02-26T11:48:28.902Z,14.07
2019-02-26T11:50:54.826Z,13.82
2019-02-26T11:53:22.558Z,14.77
2019-02-26T11:55:52.696Z,15.20
2019-02-26T11:58:21.825Z,13.77
2019-02-26T12:00:50.677Z,13.77
2019-02-26T12:03:16.996Z,13.25
2019-02-26T12:05:44.590Z,11.90
2019-02-26T12:08:16.336Z,13.98
2019-02-26T12:10:40.642Z,12.55
2019-02-26T12:13:08.572Z,13.13
2019-02-26T12:15:39.893Z,14.73
2019-02-26T12:18:05.295Z,14.57
2019-02-26T12:20:33.035Z,14.82
2019-02-26T12:23:01.045Z,13.62
2019-02-26T12:25:28.979Z,15.57
2019-02-26T12:27:56.956Z,13.73
2019-02-26T12:30:24.925Z,13.40
2019-02-26T12:32:55.064Z,13.82
2019-02-26T12:35:20.889Z,13.70
2019-02-26T12:37:50.158Z,13.68
2019-02-26T12:40:19.363Z,14.77
2019-02-26T12:42:45.448Z,13.68
2019-02-26T12:45:13.731Z,12.75
2019-02-26T12:47:43.113Z,13.15
2019-02-26T12:50:11.648Z,14.27
2019-02-26T12:52:42.131Z,12.75
2019-02-26T12:55:10.291Z,12.95
2019-02-26T12:57:35.984Z,12.88
2019-02-26T13:00:03.936Z,12.05
2019-02-26T13:02:32.055Z,12.23
2019-02-26T13:05:00.023Z,13.48
2019-02-26T13:07:30.072Z,12.48
2019-02-26T13:10:01.009Z,12.23
2019-02-26T13:12:31.565Z,11.65
2019-02-26T13:15:02.270Z,12.55
2019-02-26T13:17:26.312Z,12.65
2019-02-26T13:19:58.150Z,13.38
2019-02-26T13:22:21.032Z,12.85
2019-02-26T13:24:50.322Z,12.40
2019-02-26T13:27:19.976Z,13.38
2019-02-26T13:29:54.648Z,13.23
2019-02-26T13:32:21.099Z,13.55
2019-02-26T13:34:45.859Z,14.35
2019-02-26T13:37:16.442Z,14.80
2019-02-26T13:39:45.792Z,12.37
2019-02-26T13:42:19.147Z,13.20
2019-02-26T13:44:44.633Z,13.65
2019-02-26T13:47:12.771Z,13.23
2019-02-26T13:49:43.714Z,13.05
2019-02-26T13:52:12.145Z,13.38
2019-02-26T13:54:40.187Z,14.15
2019-02-26T13:57:09.272Z,13.73
2019-02-26T13:59:38.849Z,13.80
2019-02-26T14:02:07.478Z,13.52
2019-02-26T14:04:38.269Z,12.85
2019-02-26T14:07:11.521Z,12.43
2019-02-26T14:09:39.961Z,12.82
2019-02-26T14:12:08.787Z,13.77
2019-02-26T14:14:37.141Z,13.45
2019-02-26T14:17:04.978Z,13.55
2019-02-26T14:19:33.821Z,13.40
2019-02-26T14:22:02.476Z,13.82
2019-02-26T14:24:31.065Z,13.32
2019-02-26T14:27:01.366Z,13.07
2019-02-26T14:29:29.779Z,13.00
2019-02-26T14:31:57.517Z,13.25
2019-02-26T14:34:28.864Z,13.50
2019-02-26T14:36:57.269Z,13.93
2019-02-26T14:39:27.001Z,13.55
2019-02-26T14:41:55.548Z,13.62
2019-02-26T14:44:24.993Z,12.98
2019-02-26T14:46:57.458Z,14.63
2019-02-26T14:49:26.036Z,12.85
2019-02-26T14:51:55.833Z,13.05
2019-02-26T14:54:24.879Z,13.62
2019-02-26T14:56:55.568Z,14.00
2019-02-26T14:59:28.766Z,13.82
2019-02-26T15:01:56.756Z,12.07
2019-02-26T15:04:25.586Z,12.30
2019-02-26T15:06:55.872Z,13.07
2019-02-26T15:09:25.620Z,13.00
2019-02-26T15:11:55.087Z,12.98
2019-02-26T15:14:23.925Z,13.25
2019-02-26T15:16:51.830Z,13.48
2019-02-26T15:19:19.806Z,14.85
2019-02-26T15:21:47.211Z,13.30
2019-02-26T15:24:15.475Z,13.90
2019-02-26T15:26:43.197Z,12.48
2019-02-26T15:29:11.189Z,13.13
2019-02-26T15:31:39.669Z,14.90
2019-02-26T15:34:07.143Z,14.25
2019-02-26T15:36:35.131Z,13.57
2019-02-26T15:39:03.176Z,15.65
2019-02-26T15:41:31.145Z,15.02
2019-02-26T15:43:59.100Z,14.85
2019-02-26T15:46:28.588Z,15.02
2019-02-26T15:48:55.525Z,14.63
2019-02-26T15:51:23.535Z,14.45
2019-02-26T15:53:55.295Z,13.95
2019-02-26T15:56:19.518Z,13.48
2019-02-26T15:58:47.530Z,13.00
2019-02-26T16:01:15.758Z,15.02
2019-02-26T16:03:43.255Z,13.73
2019-02-26T16:06:11.286Z,13.88
2019-02-26T16:08:41.312Z,14.43
2019-02-26T16:11:07.331Z,14.07
2019-02-26T16:13:35.818Z,15.68
2019-02-26T16:16:03.862Z,14.55
2019-02-26T16:18:31.885Z,15.20
2019-02-26T16:20:59.844Z,14.87
2019-02-26T16:23:27.538Z,13.77
2019-02-26T16:25:55.523Z,13.20
2019-02-26T16:28:24.699Z,14.13
2019-02-26T16:30:55.623Z,13.40
2019-02-26T16:33:20.231Z,12.45
2019-02-26T16:35:48.234Z,12.05
2019-02-26T16:38:16.320Z,11.70
2019-02-26T16:40:44.325Z,12.20
2019-02-26T16:43:12.334Z,11.32
2019-02-26T16:45:41.351Z,11.43
2019-02-26T16:48:10.137Z,12.15
2019-02-26T16:50:38.108Z,11.20
2019-02-26T16:53:06.574Z,10.90
2019-02-26T16:55:34.245Z,11.27
2019-02-26T16:58:03.340Z,10.73
2019-02-26T17:00:30.235Z,11.73
2019-02-26T17:03:00.811Z,11.68
2019-02-26T17:05:26.264Z,11.65
2019-02-26T17:07:54.346Z,11.73
2019-02-26T17:10:22.070Z,12.18
2019-02-26T17:12:51.025Z,12.27
2019-02-26T17:15:23.708Z,11.95
2019-02-26T17:17:48.397Z,11.23
2019-02-26T17:20:16.356Z,13.88
2019-02-26T17:22:44.969Z,12.37
2019-02-26T17:25:11.874Z,12.85
2019-02-26T17:27:39.653Z,11.82
2019-02-26T17:30:08.733Z,12.07
2019-02-26T17:32:38.100Z,12.20
2019-02-26T17:35:04.818Z,12.57
2019-02-26T17:37:32.796Z,12.82
2019-02-26T17:40:02.698Z,13.88
2019-02-26T17:42:28.513Z,13.07
2019-02-26T17:44:55.997Z,13.65
2019-02-26T17:47:23.945Z,13.32
2019-02-26T17:49:52.502Z,13.20
2019-02-26T17:52:20.911Z,12.63
2019-02-26T17:54:49.908Z,13.18
2019-02-26T17:57:17.125Z,13.32
2019-02-26T17:59:45.444Z,12.18
2019-02-26T18:02:13.457Z,13.65
2019-02-26T18:04:41.463Z,12.63
2019-02-26T18:07:09.190Z,13.07
2019-02-26T18:09:37.489Z,13.02
2019-02-26T18:12:06.041Z,12.45
2019-02-26T18:14:38.534Z,12.32
2019-02-26T18:17:02.306Z,13.07
2019-02-26T18:19:30.234Z,13.73
2019-02-26T18:21:58.279Z,12.90
2019-02-26T18:24:26.285Z,12.18
2019-02-26T18:26:54.785Z,13.40
2019-02-26T18:29:25.507Z,11.10
2019-02-26T18:31:50.653Z,13.73
2019-02-26T18:34:20.542Z,13.13
2019-02-26T18:36:47.006Z,13.82
2019-02-26T18:39:14.699Z,12.95
2019-02-26T18:41:50.553Z,13.18
2019-02-26T18:44:10.981Z,12.82
2019-02-26T18:46:38.751Z,13.45
2019-02-26T18:49:06.789Z,12.32
2019-02-26T18:51:36.524Z,13.50
2019-02-26T18:54:03.247Z,12.35
2019-02-26T18:56:31.293Z,12.77
2019-02-26T18:58:59.326Z,12.57
2019-02-26T19:01:28.477Z,12.60
2019-02-26T19:03:55.225Z,12.52
2019-02-26T19:06:24.683Z,12.50
2019-02-26T19:08:51.231Z,12.50
2019-02-26T19:11:19.257Z,12.90
2019-02-26T19:13:47.077Z,13.30
2019-02-26T19:16:14.774Z,12.48
2019-02-26T19:18:43.064Z,12.80
2019-02-26T19:21:11.376Z,11.90
2019-02-26T19:23:39.083Z,12.55
2019-02-26T19:26:07.152Z,12.90
2019-02-26T19:28:35.365Z,14.63
2019-02-26T19:31:03.432Z,12.88
2019-02-26T19:33:31.433Z,13.35
2019-02-26T19:35:59.179Z,13.55
2019-02-26T19:38:27.689Z,13.48
2019-02-26T19:40:55.652Z,13.85
2019-02-26T19:43:25.929Z,11.52
2019-02-26T19:45:51.814Z,15.18
2019-02-26T19:48:19.883Z,13.82
2019-02-26T19:50:48.890Z,12.45
2019-02-26T19:53:17.716Z,12.30
2019-02-26T19:55:48.768Z,13.88
2019-02-26T19:58:13.976Z,14.50
2019-02-26T20:00:41.947Z,12.35
2019-02-26T20:03:10.027Z,11.75
2019-02-26T20:05:38.029Z,11.18
2019-02-26T20:08:06.074Z,11.82
2019-02-26T20:10:33.687Z,11.40
2019-02-26T20:13:04.007Z,15.30
2019-02-26T20:15:30.515Z,14.25
2019-02-26T20:17:58.116Z,13.90
2019-02-26T20:20:25.929Z,10.82
2019-02-26T20:22:53.931Z,11.38
2019-02-26T20:25:21.679Z,11.82
2019-02-26T20:27:52.660Z,13.57
2019-02-26T20:30:18.656Z,15.75
2019-02-26T20:32:46.629Z,13.95
2019-02-26T20:35:16.055Z,11.68
2019-02-26T20:37:42.971Z,15.10
2019-02-26T20:40:15.937Z,16.02
2019-02-26T20:42:40.485Z,15.75
2019-02-26T20:45:08.920Z,14.40
2019-02-26T20:47:37.051Z,16.27
2019-02-26T20:50:05.297Z,16.23
2019-02-26T20:52:33.441Z,15.63
2019-02-26T20:55:01.675Z,15.82
2019-02-26T20:57:30.184Z,16.45
2019-02-26T20:59:58.207Z,15.73
2019-02-26T21:02:26.011Z,16.25
2019-02-26T21:04:54.728Z,15.05
2019-02-26T21:07:24.506Z,16.17
2019-02-26T21:09:50.834Z,16.27
2019-02-26T21:12:18.976Z,16.05
2019-02-26T21:14:46.746Z,15.70
2019-02-26T21:17:14.749Z,15.93
2019-02-26T21:19:43.173Z,16.12
2019-02-26T21:22:10.935Z,16.10
2019-02-26T21:24:39.548Z,16.33
2019-02-26T21:27:07.596Z,15.30
2019-02-26T21:29:38.715Z,14.02
2019-02-26T21:32:03.632Z,13.98
2019-02-26T21:34:32.315Z,16.58
2019-02-26T21:37:00.709Z,13.45
2019-02-26T21:39:28.083Z,14.35
2019-02-26T21:41:56.769Z,13.60
2019-02-26T21:44:24.829Z,13.48
2019-02-26T21:46:53.722Z,14.55
2019-02-26T21:49:21.836Z,13.65
2019-02-26T21:51:48.951Z,14.43
2019-02-26T21:54:16.999Z,14.70
2019-02-26T21:56:48.743Z,16.15
2019-02-26T21:59:14.919Z,16.05
2019-02-26T22:01:45.887Z,16.08
2019-02-26T22:04:10.771Z,15.27
2019-02-26T22:06:39.936Z,19.05
2019-02-26T22:09:07.205Z,16.58
2019-02-26T22:11:35.263Z,15.38
2019-02-26T22:14:03.561Z,14.73
2019-02-26T22:16:31.176Z,15.20
2019-02-26T22:19:00.024Z,14.45
2019-02-26T22:21:27.731Z,14.00
2019-02-26T22:23:56.270Z,16.05
2019-02-26T22:26:25.965Z,14.60
2019-02-26T22:28:53.111Z,15.13
2019-02-26T22:31:20.271Z,14.10
2019-02-26T22:33:48.086Z,17.40
2019-02-26T22:36:16.163Z,17.42
2019-02-26T22:38:48.762Z,15.98
2019-02-26T22:41:13.608Z,18.80
2019-02-26T22:43:42.134Z,18.33
2019-02-26T22:46:10.158Z,17.62
2019-02-26T22:48:38.456Z,16.27
2019-02-26T22:51:06.519Z,16.50
2019-02-26T22:53:36.658Z,17.23
2019-02-26T22:56:03.827Z,18.42
2019-02-26T22:58:35.615Z,16.37
2019-02-26T23:01:17.589Z,16.20
2019-02-26T23:03:46.470Z,15.40
2019-02-26T23:06:13.423Z,15.65
2019-02-26T23:08:44.354Z,15.93
2019-02-26T23:11:09.695Z,15.70
2019-02-26T23:13:37.782Z,16.50
2019-02-26T23:16:06.239Z,17.17
2019-02-26T23:18:34.298Z,16.40
2019-02-26T23:21:02.895Z,16.83
2019-02-26T23:23:30.915Z,16.40
2019-02-26T23:25:59.078Z,16.35
2019-02-26T23:28:27.102Z,17.05
2019-02-26T23:30:54.864Z,16.85
2019-02-26T23:33:22.879Z,16.40
2019-02-26T23:35:54.889Z,16.08
2019-02-26T23:38:19.360Z,16.15
2019-02-26T23:40:47.185Z,15.15
2019-02-26T23:43:15.216Z,17.12
2019-02-26T23:45:43.260Z,16.87
2019-02-26T23:48:11.271Z,16.90
2019-02-26T23:50:39.813Z,16.30
2019-02-26T23:53:08.181Z,16.55
2019-02-26T23:55:36.241Z,16.67
2019-02-26T23:58:04.323Z,16.37
